sensor_id;sensor_type;location;lat;lon;timestamp;temperature;humidity
431;DHT22;202;48.764;9.172;2024-01-06T01:46:03;8.70;33.60
431;DHT22;202;48.764;9.172;2024-01-06T10:44:30;8.80;33.60
431;DHT22;202;48.764;9.172;2024-01-06T10:47:21;8.60;34.90
431;DHT22;202;48.764;9.172;2024-01-06T10:50:01;8.40;35.30
431;DHT22;202;48.764;9.172;2024-01-06T10:52:32;8.40;36.40
431;DHT22;202;48.764;9.172;2024-01-06T10:55:07;8.30;35.90
431;DHT22;202;48.764;9.172;2024-01-06T10:57:43;8.20;37.60
431;DHT22;202;48.764;9.172;2024-01-06T11:00:13;8.20;37.40
431;DHT22;202;48.764;9.172;2024-01-06T11:02:41;8.00;38.10
431;DHT22;202;48.764;9.172;2024-01-06T11:05:13;8.10;36.90
431;DHT22;202;48.764;9.172;2024-01-06T11:07:53;8.10;37.90
431;DHT22;202;48.764;9.172;2024-01-06T13:15:48;8.70;38.60
431;DHT22;202;48.764;9.172;2024-01-06T13:18:27;8.60;38.50
431;DHT22;202;48.764;9.172;2024-01-06T13:21:09;8.40;38.30
431;DHT22;202;48.764;9.172;2024-01-06T13:23:51;8.40;40.20
431;DHT22;202;48.764;9.172;2024-01-06T13:26:56;8.60;40.10
431;DHT22;202;48.764;9.172;2024-01-06T13:29:43;8.60;39.60
431;DHT22;202;48.764;9.172;2024-01-06T13:32:17;8.60;39.80
431;DHT22;202;48.764;9.172;2024-01-06T13:42:01;8.60;39.50
431;DHT22;202;48.764;9.172;2024-01-06T13:44:50;8.60;39.40
431;DHT22;202;48.764;9.172;2024-01-06T13:47:51;8.60;38.70
431;DHT22;202;48.764;9.172;2024-01-06T13:50:42;8.50;39.10
431;DHT22;202;48.764;9.172;2024-01-06T14:00:49;8.70;38.60
431;DHT22;202;48.764;9.172;2024-01-06T16:08:23;8.40;44.20
431;DHT22;202;48.764;9.172;2024-01-06T16:30:02;8.30;44.60
431;DHT22;202;48.764;9.172;2024-01-06T16:32:57;8.30;45.10
431;DHT22;202;48.764;9.172;2024-01-06T16:36:25;8.30;44.90
431;DHT22;202;48.764;9.172;2024-01-06T16:39:59;8.30;44.80
431;DHT22;202;48.764;9.172;2024-01-06T16:42:53;8.30;45.80
431;DHT22;202;48.764;9.172;2024-01-06T16:45:46;8.30;46.10
431;DHT22;202;48.764;9.172;2024-01-06T16:48:23;8.30;46.40
431;DHT22;202;48.764;9.172;2024-01-06T16:53:40;8.30;46.30
431;DHT22;202;48.764;9.172;2024-01-06T16:58:57;8.40;46.20
431;DHT22;202;48.764;9.172;2024-01-06T17:01:27;8.40;46.60
431;DHT22;202;48.764;9.172;2024-01-06T17:04:13;8.50;46.60
431;DHT22;202;48.764;9.172;2024-01-06T17:07:34;8.50;46.10
431;DHT22;202;48.764;9.172;2024-01-06T17:10:21;8.40;46.40
431;DHT22;202;48.764;9.172;2024-01-06T17:13:05;8.20;47.00
431;DHT22;202;48.764;9.172;2024-01-06T17:16:08;8.40;48.10
431;DHT22;202;48.764;9.172;2024-01-06T17:18:58;8.30;48.10
431;DHT22;202;48.764;9.172;2024-01-06T17:21:37;8.30;48.10
431;DHT22;202;48.764;9.172;2024-01-06T17:24:21;8.30;48.10
431;DHT22;202;48.764;9.172;2024-01-06T17:26:54;8.30;48.10
431;DHT22;202;48.764;9.172;2024-01-06T17:29:46;8.30;48.10
431;DHT22;202;48.764;9.172;2024-01-06T17:32:42;8.20;48.00
431;DHT22;202;48.764;9.172;2024-01-06T17:35:27;8.20;48.00
431;DHT22;202;48.764;9.172;2024-01-06T17:38:17;8.20;48.00
431;DHT22;202;48.764;9.172;2024-01-06T17:41:18;8.10;48.20
431;DHT22;202;48.764;9.172;2024-01-06T17:44:26;8.20;48.00
431;DHT22;202;48.764;9.172;2024-01-06T17:50:10;8.20;48.00
431;DHT22;202;48.764;9.172;2024-01-06T17:53:05;8.20;47.40
431;DHT22;202;48.764;9.172;2024-01-06T17:55:41;8.30;48.10
431;DHT22;202;48.764;9.172;2024-01-06T17:58:31;8.20;48.00
431;DHT22;202;48.764;9.172;2024-01-06T18:01:04;8.20;48.30
431;DHT22;202;48.764;9.172;2024-01-06T18:04:06;8.30;48.10
431;DHT22;202;48.764;9.172;2024-01-06T18:06:50;8.30;47.90
431;DHT22;202;48.764;9.172;2024-01-06T18:09:32;8.40;47.50
431;DHT22;202;48.764;9.172;2024-01-06T18:12:35;8.40;47.90
431;DHT22;202;48.764;9.172;2024-01-06T18:15:39;8.40;47.00
431;DHT22;202;48.764;9.172;2024-01-06T18:18:14;8.40;47.30
431;DHT22;202;48.764;9.172;2024-01-06T18:20:49;8.40;48.10
431;DHT22;202;48.764;9.172;2024-01-06T18:23:59;8.40;48.10
431;DHT22;202;48.764;9.172;2024-01-06T18:27:13;8.40;48.10
431;DHT22;202;48.764;9.172;2024-01-06T18:30:02;8.40;49.10
431;DHT22;202;48.764;9.172;2024-01-06T18:33:05;8.40;49.00
431;DHT22;202;48.764;9.172;2024-01-06T18:35:56;8.50;49.30
431;DHT22;202;48.764;9.172;2024-01-06T18:38:35;8.40;49.50
431;DHT22;202;48.764;9.172;2024-01-06T18:41:40;8.40;49.50
431;DHT22;202;48.764;9.172;2024-01-06T18:44:58;8.40;50.10
431;DHT22;202;48.764;9.172;2024-01-06T18:47:47;8.30;50.50
431;DHT22;202;48.764;9.172;2024-01-06T18:50:22;8.30;50.70
431;DHT22;202;48.764;9.172;2024-01-06T18:52:55;8.20;51.20
431;DHT22;202;48.764;9.172;2024-01-06T18:55:45;8.20;51.90
431;DHT22;202;48.764;9.172;2024-01-06T18:58:56;8.20;52.00
431;DHT22;202;48.764;9.172;2024-01-06T19:01:57;8.20;52.70
431;DHT22;202;48.764;9.172;2024-01-06T19:04:47;8.20;52.70
431;DHT22;202;48.764;9.172;2024-01-06T19:07:26;8.20;50.90
431;DHT22;202;48.764;9.172;2024-01-06T19:10:09;8.20;51.90
431;DHT22;202;48.764;9.172;2024-01-06T19:13:13;8.20;52.70
431;DHT22;202;48.764;9.172;2024-01-06T19:16:13;8.20;52.80
431;DHT22;202;48.764;9.172;2024-01-06T19:18:58;8.30;52.20
431;DHT22;202;48.764;9.172;2024-01-06T19:21:58;8.30;51.40
431;DHT22;202;48.764;9.172;2024-01-06T19:24:52;8.30;50.60
431;DHT22;202;48.764;9.172;2024-01-06T19:27:38;8.30;50.60
431;DHT22;202;48.764;9.172;2024-01-06T19:30:38;8.30;50.80
431;DHT22;202;48.764;9.172;2024-01-06T19:39:36;8.30;50.10
431;DHT22;202;48.764;9.172;2024-01-06T19:42:35;8.30;50.40
431;DHT22;202;48.764;9.172;2024-01-06T19:45:24;8.40;49.90
431;DHT22;202;48.764;9.172;2024-01-06T19:48:13;8.40;49.80
431;DHT22;202;48.764;9.172;2024-01-06T19:51:34;8.40;49.30
431;DHT22;202;48.764;9.172;2024-01-06T19:54:19;8.30;49.60
431;DHT22;202;48.764;9.172;2024-01-06T19:57:10;8.30;49.50
431;DHT22;202;48.764;9.172;2024-01-06T20:00:20;8.30;50.60
431;DHT22;202;48.764;9.172;2024-01-06T20:03:00;8.30;50.50
431;DHT22;202;48.764;9.172;2024-01-06T20:05:45;8.40;50.30
431;DHT22;202;48.764;9.172;2024-01-06T20:09:02;8.40;49.60
431;DHT22;202;48.764;9.172;2024-01-06T20:15:17;8.30;49.50
431;DHT22;202;48.764;9.172;2024-01-06T20:18:16;8.30;50.60
431;DHT22;202;48.764;9.172;2024-01-06T20:21:04;8.10;50.80
431;DHT22;202;48.764;9.172;2024-01-06T20:24:07;8.20;51.00
431;DHT22;202;48.764;9.172;2024-01-06T20:27:27;8.20;50.40
431;DHT22;202;48.764;9.172;2024-01-06T20:30:38;8.30;50.20
431;DHT22;202;48.764;9.172;2024-01-06T20:33:34;8.30;50.10
431;DHT22;202;48.764;9.172;2024-01-06T20:36:22;8.30;49.80
431;DHT22;202;48.764;9.172;2024-01-06T20:39:35;8.30;49.20
431;DHT22;202;48.764;9.172;2024-01-06T20:42:42;8.30;49.60
431;DHT22;202;48.764;9.172;2024-01-06T20:45:23;8.30;49.70
431;DHT22;202;48.764;9.172;2024-01-06T20:48:34;8.30;49.90
431;DHT22;202;48.764;9.172;2024-01-06T20:51:41;8.40;49.30
431;DHT22;202;48.764;9.172;2024-01-06T20:57:44;8.30;49.30
431;DHT22;202;48.764;9.172;2024-01-06T21:06:55;8.20;49.90
431;DHT22;202;48.764;9.172;2024-01-06T21:09:50;8.30;50.20
431;DHT22;202;48.764;9.172;2024-01-06T21:12:58;8.30;49.50
431;DHT22;202;48.764;9.172;2024-01-06T21:16:03;8.40;50.10
431;DHT22;202;48.764;9.172;2024-01-06T21:18:59;8.30;49.10
431;DHT22;202;48.764;9.172;2024-01-06T21:21:50;8.30;49.70
431;DHT22;202;48.764;9.172;2024-01-06T21:24:52;8.30;49.50
431;DHT22;202;48.764;9.172;2024-01-06T21:27:32;8.30;48.80
431;DHT22;202;48.764;9.172;2024-01-06T21:30:28;8.30;48.70
431;DHT22;202;48.764;9.172;2024-01-06T21:36:13;8.30;48.80
431;DHT22;202;48.764;9.172;2024-01-06T21:38:56;8.30;49.50
431;DHT22;202;48.764;9.172;2024-01-06T21:44:19;8.40;49.20
431;DHT22;202;48.764;9.172;2024-01-06T21:46:53;8.30;48.60
431;DHT22;202;48.764;9.172;2024-01-06T21:49:32;8.40;48.40
431;DHT22;202;48.764;9.172;2024-01-06T21:52:20;8.40;48.50
431;DHT22;202;48.764;9.172;2024-01-06T21:55:12;8.30;48.60
431;DHT22;202;48.764;9.172;2024-01-06T21:58:01;8.30;48.40
431;DHT22;202;48.764;9.172;2024-01-06T22:00:36;8.40;48.20
431;DHT22;202;48.764;9.172;2024-01-06T22:03:23;8.30;48.70
431;DHT22;202;48.764;9.172;2024-01-06T22:06:16;8.30;49.00
431;DHT22;202;48.764;9.172;2024-01-06T22:09:04;8.30;48.90
431;DHT22;202;48.764;9.172;2024-01-06T22:11:42;8.30;48.70
431;DHT22;202;48.764;9.172;2024-01-06T22:14:32;8.40;48.50
431;DHT22;202;48.764;9.172;2024-01-06T22:17:17;8.40;48.80
431;DHT22;202;48.764;9.172;2024-01-06T22:20:01;8.40;48.60
431;DHT22;202;48.764;9.172;2024-01-06T22:22:59;8.40;48.10
431;DHT22;202;48.764;9.172;2024-01-06T22:25:49;8.30;48.70
431;DHT22;202;48.764;9.172;2024-01-06T22:34:29;8.20;48.70
431;DHT22;202;48.764;9.172;2024-01-06T22:37:20;8.30;49.40
431;DHT22;202;48.764;9.172;2024-01-06T22:40:21;8.20;49.80
431;DHT22;202;48.764;9.172;2024-01-06T22:43:18;8.20;49.50
431;DHT22;202;48.764;9.172;2024-01-06T22:49:21;8.20;50.20
431;DHT22;202;48.764;9.172;2024-01-06T22:51:53;8.20;50.60
431;DHT22;202;48.764;9.172;2024-01-06T22:54:37;8.20;50.40
431;DHT22;202;48.764;9.172;2024-01-06T22:57:53;8.30;50.40
431;DHT22;202;48.764;9.172;2024-01-06T23:00:35;8.20;50.20
431;DHT22;202;48.764;9.172;2024-01-06T23:03:22;8.20;50.10
431;DHT22;202;48.764;9.172;2024-01-06T23:05:51;8.30;50.10
431;DHT22;202;48.764;9.172;2024-01-06T23:08:53;8.30;49.80
431;DHT22;202;48.764;9.172;2024-01-06T23:14:31;8.20;49.70
431;DHT22;202;48.764;9.172;2024-01-06T23:17:07;8.30;49.30
431;DHT22;202;48.764;9.172;2024-01-06T23:20:15;8.20;49.60
431;DHT22;202;48.764;9.172;2024-01-06T23:22:56;8.20;49.50
431;DHT22;202;48.764;9.172;2024-01-06T23:25:51;8.20;49.60
431;DHT22;202;48.764;9.172;2024-01-06T23:28:37;8.20;49.40
431;DHT22;202;48.764;9.172;2024-01-06T23:31:11;8.20;49.10
431;DHT22;202;48.764;9.172;2024-01-06T23:34:02;8.20;49.40
431;DHT22;202;48.764;9.172;2024-01-06T23:36:40;8.20;49.40
431;DHT22;202;48.764;9.172;2024-01-06T23:39:29;8.30;49.60
431;DHT22;202;48.764;9.172;2024-01-06T23:42:04;8.20;49.10
431;DHT22;202;48.764;9.172;2024-01-06T23:44:45;8.20;49.30
431;DHT22;202;48.764;9.172;2024-01-06T23:47:19;8.20;49.30
431;DHT22;202;48.764;9.172;2024-01-06T23:50:16;8.20;49.70
431;DHT22;202;48.764;9.172;2024-01-06T23:52:52;8.30;49.30
431;DHT22;202;48.764;9.172;2024-01-06T23:55:45;8.30;48.30
